createdAt,value
2022-09-14T00:00:14.816Z,9.23
2022-09-14T00:02:42.686Z,7.78
2022-09-14T00:05:12.143Z,10.07
2022-09-14T00:07:39.913Z,8.73
2022-09-14T00:10:08.538Z,10.40
2022-09-14T00:12:36.718Z,10.35
2022-09-14T00:15:07.671Z,10.27
2022-09-14T00:17:35.986Z,8.93
2022-09-14T00:20:03.986Z,9.95
2022-09-14T00:22:35.942Z,9.07
2022-09-14T00:25:04.141Z,11.82
2022-09-14T00:27:31.832Z,12.80
2022-09-14T00:29:59.644Z,11.20
2022-09-14T00:32:27.434Z,11.55
2022-09-14T00:34:55.179Z,11.45
2022-09-14T00:37:23.024Z,14.70
2022-09-14T00:39:52.252Z,10.60
2022-09-14T00:42:22.355Z,13.35
2022-09-14T00:45:08.215Z,9.27
2022-09-14T00:47:36.701Z,10.05
2022-09-14T00:50:08.883Z,9.77
2022-09-14T00:52:40.372Z,7.70
2022-09-14T00:55:13.312Z,11.23
2022-09-14T00:57:46.452Z,10.73
2022-09-14T01:00:20.978Z,8.50
2022-09-14T01:02:51.567Z,9.52
2022-09-14T01:05:29.927Z,10.27
2022-09-14T01:08:19.498Z,9.90
2022-09-14T01:11:23.703Z,9.75
2022-09-14T01:14:00.851Z,9.02
2022-09-14T01:16:35.992Z,10.70
2022-09-14T01:19:09.684Z,9.15
2022-09-14T01:21:42.045Z,10.43
2022-09-14T01:24:22.074Z,8.45
2022-09-14T01:27:21.178Z,7.88
2022-09-14T01:29:55.397Z,10.02
2022-09-14T01:32:28.628Z,9.63
2022-09-14T01:35:04.661Z,9.73
2022-09-14T01:37:36.276Z,10.07
2022-09-14T01:40:11.512Z,8.40
2022-09-14T01:42:44.068Z,9.25
2022-09-14T01:45:16.713Z,10.85
2022-09-14T01:47:49.151Z,8.48
2022-09-14T01:50:23.820Z,7.70
2022-09-14T01:52:58.666Z,10.30
2022-09-14T01:55:45.829Z,6.80
2022-09-14T01:58:21.438Z,10.75
2022-09-14T02:00:51.614Z,12.93
2022-09-14T02:03:25.347Z,9.50
2022-09-14T02:06:07.696Z,13.30
2022-09-14T02:08:36.444Z,8.48
2022-09-14T02:11:39.444Z,9.63
2022-09-14T02:14:08.936Z,9.15
2022-09-14T02:16:37.397Z,8.93
2022-09-14T02:19:06.607Z,8.05
2022-09-14T02:24:50.330Z,6.15
2022-09-14T02:28:13.122Z,5.85
2022-09-14T02:31:11.878Z,7.93
2022-09-14T02:41:27.593Z,8.80
2022-09-14T02:44:25.832Z,4.43
2022-09-14T02:47:15.568Z,11.30
2022-09-14T02:49:52.608Z,5.93
2022-09-14T02:52:29.399Z,6.35
2022-09-14T02:55:15.815Z,7.15
2022-09-14T02:58:08.840Z,9.50
2022-09-14T03:00:38.788Z,7.25
2022-09-14T03:03:15.200Z,6.72
2022-09-14T03:05:43.302Z,6.68
2022-09-14T03:08:12.510Z,6.60
2022-09-14T03:10:51.963Z,8.05
2022-09-14T03:13:20.328Z,6.93
2022-09-14T03:15:51.577Z,7.30
2022-09-14T03:18:33.912Z,8.07
2022-09-14T03:21:07.076Z,5.65
2022-09-14T03:23:58.093Z,9.00
2022-09-14T03:26:29.018Z,6.88
2022-09-14T03:29:12.470Z,9.25
2022-09-14T03:32:15.691Z,8.80
2022-09-14T03:34:44.793Z,9.10
2022-09-14T03:37:12.732Z,5.38
2022-09-14T03:39:40.560Z,3.85
2022-09-14T03:42:08.496Z,7.97
2022-09-14T03:44:36.267Z,6.78
2022-09-14T03:47:04.149Z,6.93
2022-09-14T03:49:31.886Z,5.95
2022-09-14T03:52:12.322Z,6.30
2022-09-14T03:54:58.765Z,9.77
2022-09-14T03:57:27.058Z,4.32
2022-09-14T03:59:57.255Z,6.15
2022-09-14T04:02:30.161Z,4.63
2022-09-14T04:04:58.331Z,4.35
2022-09-14T04:07:27.998Z,5.57
2022-09-14T04:10:17.714Z,6.13
2022-09-14T04:14:18.116Z,7.20
2022-09-14T04:22:37.461Z,6.75
2022-09-14T04:29:38.660Z,6.55
2022-09-14T04:37:27.392Z,10.57
2022-09-14T04:40:56.314Z,6.82
2022-09-14T04:43:43.140Z,8.20
2022-09-14T04:46:15.472Z,10.00
2022-09-14T04:48:46.355Z,5.47
2022-09-14T04:52:00.761Z,10.95
2022-09-14T04:54:28.643Z,5.68
2022-09-14T04:57:03.256Z,5.60
2022-09-14T04:59:34.428Z,8.38
2022-09-14T05:02:14.782Z,5.38
2022-09-14T05:04:42.549Z,6.32
2022-09-14T05:07:12.828Z,6.15
2022-09-14T05:09:40.511Z,10.70
2022-09-14T05:12:08.806Z,13.52
2022-09-14T05:14:36.602Z,8.60
2022-09-14T05:17:25.425Z,6.68
2022-09-14T05:19:53.188Z,9.57
2022-09-14T05:22:22.765Z,6.07
2022-09-14T05:24:51.857Z,6.90
2022-09-14T05:27:26.522Z,6.10
2022-09-14T05:30:23.585Z,5.28
2022-09-14T05:32:59.639Z,5.32
2022-09-14T05:35:27.764Z,4.38
2022-09-14T05:38:15.372Z,4.68
2022-09-14T05:40:43.482Z,5.57
2022-09-14T05:43:11.517Z,5.00
2022-09-14T05:45:49.328Z,5.57
2022-09-14T05:48:34.589Z,4.28
2022-09-14T05:54:49.180Z,5.70
2022-09-14T05:57:23.877Z,7.47
2022-09-14T06:04:25.535Z,4.25
2022-09-14T06:08:15.787Z,5.95
2022-09-14T06:27:52.343Z,5.47
2022-09-14T06:31:25.181Z,4.50
2022-09-14T06:34:41.661Z,6.93
2022-09-14T06:37:09.620Z,4.90
2022-09-14T06:40:00.363Z,8.35
2022-09-14T06:42:30.844Z,7.75
2022-09-14T06:48:35.203Z,9.07
2022-09-14T06:54:13.861Z,5.10
2022-09-14T06:57:17.470Z,6.18
2022-09-14T06:59:45.440Z,5.22
2022-09-14T07:02:37.367Z,6.35
2022-09-14T07:05:21.478Z,8.00
2022-09-14T07:08:52.150Z,8.07
2022-09-14T07:12:36.019Z,9.85
2022-09-14T07:22:15.762Z,9.05
2022-09-14T07:24:52.652Z,5.85
2022-09-14T07:27:20.325Z,8.02
2022-09-14T07:29:48.580Z,6.18
2022-09-14T07:32:19.760Z,7.13
2022-09-14T07:34:50.079Z,8.10
2022-09-14T07:37:18.185Z,10.63
2022-09-14T07:40:04.577Z,12.02
2022-09-14T07:42:32.593Z,9.15
2022-09-14T07:45:04.388Z,8.68
2022-09-14T07:47:32.462Z,8.63
2022-09-14T07:50:02.061Z,5.28
2022-09-14T07:52:45.367Z,6.35
2022-09-14T07:55:13.441Z,7.68
2022-09-14T07:57:59.433Z,7.55
2022-09-14T08:00:27.407Z,5.45
2022-09-14T08:03:11.796Z,5.93
2022-09-14T08:05:45.857Z,6.38
2022-09-14T08:08:13.572Z,8.20
2022-09-14T08:10:44.646Z,9.13
2022-09-14T08:14:07.920Z,10.85
2022-09-14T08:20:55.879Z,9.60
2022-09-14T08:24:03.877Z,13.70
2022-09-14T08:33:30.944Z,16.10
2022-09-14T08:36:37.464Z,13.05
2022-09-14T08:39:10.505Z,15.20
2022-09-14T08:41:42.744Z,14.77
2022-09-14T08:47:29.461Z,16.80
2022-09-14T08:54:02.271Z,14.95
2022-09-14T08:56:48.715Z,14.05
2022-09-14T09:00:23.614Z,15.95
2022-09-14T09:03:12.402Z,11.85
2022-09-14T09:06:07.600Z,14.23
2022-09-14T09:08:47.723Z,10.52
2022-09-14T09:12:04.899Z,10.88
2022-09-14T09:15:08.484Z,10.45
2022-09-14T09:18:00.340Z,12.93
2022-09-14T09:20:35.858Z,15.18
2022-09-14T09:23:32.478Z,15.20
2022-09-14T09:27:00.880Z,14.90
2022-09-14T09:33:30.014Z,14.20
2022-09-14T09:36:54.988Z,12.10
2022-09-14T09:44:04.285Z,12.98
2022-09-14T09:48:07.233Z,10.25
2022-09-14T10:32:53.626Z,10.27
2022-09-14T10:35:25.211Z,11.32
2022-09-14T10:38:04.584Z,9.70
2022-09-14T10:40:38.550Z,7.68
2022-09-14T10:43:15.332Z,10.18
2022-09-14T10:45:50.368Z,7.97
2022-09-14T10:48:44.491Z,5.70
2022-09-14T10:51:32.500Z,10.15
2022-09-14T10:54:05.702Z,8.52
2022-09-14T10:56:44.111Z,8.55
2022-09-14T10:59:27.062Z,8.93
2022-09-14T11:02:29.565Z,7.03
2022-09-14T11:05:08.477Z,9.32
2022-09-14T11:07:44.981Z,6.93
2022-09-14T11:10:21.419Z,7.55
2022-09-14T11:13:05.876Z,9.50
2022-09-14T11:15:41.107Z,6.97
2022-09-14T11:18:25.998Z,8.05
2022-09-14T11:21:04.683Z,9.57
2022-09-14T11:23:47.213Z,8.65
2022-09-14T11:26:19.704Z,8.75
2022-09-14T11:28:52.765Z,8.27
2022-09-14T11:31:24.436Z,8.13
2022-09-14T11:33:56.985Z,10.55
2022-09-14T11:36:29.073Z,8.60
2022-09-14T11:39:06.921Z,8.88
2022-09-14T11:41:40.324Z,10.45
2022-09-14T11:44:14.442Z,8.13
2022-09-14T11:46:47.976Z,8.95
2022-09-14T11:49:20.662Z,8.13
2022-09-14T11:51:53.020Z,9.40
2022-09-14T11:54:24.451Z,7.57
2022-09-14T11:56:56.274Z,8.57
2022-09-14T11:59:50.682Z,8.52
2022-09-14T12:02:49.090Z,8.15
2022-09-14T12:05:32.820Z,7.10
2022-09-14T12:08:03.493Z,9.05
2022-09-14T12:10:32.960Z,9.65
2022-09-14T12:13:22.918Z,10.07
2022-09-14T12:16:04.408Z,6.57
2022-09-14T12:18:33.165Z,9.27
2022-09-14T12:21:03.202Z,8.82
2022-09-14T12:23:42.763Z,8.98
2022-09-14T12:26:29.030Z,8.32
2022-09-14T12:29:02.214Z,11.32
2022-09-14T12:32:01.070Z,10.13
2022-09-14T12:34:31.928Z,9.65
2022-09-14T12:37:32.494Z,8.60
2022-09-14T12:40:35.375Z,6.53
2022-09-14T12:43:46.043Z,8.60
2022-09-14T12:46:34.211Z,7.97
2022-09-14T12:49:03.690Z,9.63
2022-09-14T12:51:45.740Z,8.27
2022-09-14T12:54:28.182Z,9.50
2022-09-14T12:57:19.940Z,8.63
2022-09-14T12:59:55.646Z,6.05
2022-09-14T13:02:55.384Z,7.10
2022-09-14T13:05:26.835Z,7.30
2022-09-14T13:07:56.018Z,6.60
2022-09-14T13:10:28.624Z,9.07
2022-09-14T13:12:57.245Z,7.57
2022-09-14T13:15:27.792Z,6.47
2022-09-14T13:18:04.207Z,6.72
2022-09-14T13:20:33.351Z,8.13
2022-09-14T13:23:01.768Z,6.85
2022-09-14T13:25:33.927Z,5.72
2022-09-14T13:28:04.011Z,5.45
2022-09-14T13:30:32.968Z,6.57
2022-09-14T13:33:02.687Z,5.57
2022-09-14T13:35:34.296Z,4.55
2022-09-14T13:38:08.657Z,4.05
2022-09-14T13:40:36.534Z,7.20
2022-09-14T13:43:04.351Z,6.25
2022-09-14T13:45:32.852Z,6.30
2022-09-14T13:48:02.345Z,5.80
2022-09-14T13:50:29.966Z,8.70
2022-09-14T13:53:02.457Z,6.75
2022-09-14T13:55:43.864Z,5.80
2022-09-14T13:58:22.332Z,5.55
2022-09-14T14:00:54.454Z,6.38
2022-09-14T14:03:30.724Z,8.15
2022-09-14T14:05:59.128Z,5.72
2022-09-14T14:08:32.177Z,5.68
2022-09-14T14:11:02.942Z,5.47
2022-09-14T14:13:32.694Z,8.32
2022-09-14T14:16:20.438Z,3.97
2022-09-14T14:18:54.407Z,5.80
2022-09-14T14:21:31.370Z,3.88
2022-09-14T14:24:26.542Z,5.22
2022-09-14T14:26:56.159Z,4.75
2022-09-14T14:29:23.893Z,5.78
2022-09-14T14:31:51.667Z,4.68
2022-09-14T14:34:23.551Z,3.63
2022-09-14T14:36:51.234Z,4.82
2022-09-14T14:39:20.203Z,6.68
2022-09-14T14:41:48.480Z,4.60
2022-09-14T14:44:19.327Z,2.45
2022-09-14T14:46:47.329Z,3.55
2022-09-14T14:49:17.057Z,4.75
2022-09-14T14:51:46.003Z,4.18
2022-09-14T14:54:16.696Z,3.42
2022-09-14T14:56:46.343Z,3.50
2022-09-14T14:59:25.288Z,3.25
2022-09-14T15:01:54.911Z,6.05
2022-09-14T15:04:22.549Z,5.75
2022-09-14T15:06:52.095Z,3.15
2022-09-14T15:09:21.566Z,3.95
2022-09-14T15:11:49.919Z,4.13
2022-09-14T15:14:21.330Z,5.25
2022-09-14T15:16:51.986Z,4.63
2022-09-14T15:19:19.574Z,5.13
2022-09-14T15:21:47.406Z,4.07
2022-09-14T15:24:16.445Z,3.42
2022-09-14T15:26:44.281Z,4.38
2022-09-14T15:29:13.545Z,5.70
2022-09-14T15:31:41.497Z,4.10
2022-09-14T15:34:09.051Z,4.32
2022-09-14T15:36:42.277Z,5.75
2022-09-14T15:39:13.192Z,3.08
2022-09-14T15:41:42.315Z,4.53
2022-09-14T15:44:11.534Z,3.45
2022-09-14T15:46:40.139Z,4.50
2022-09-14T15:49:09.373Z,5.45
2022-09-14T15:51:36.918Z,4.88
2022-09-14T15:54:05.226Z,5.78
2022-09-14T15:56:32.809Z,3.55
2022-09-14T15:59:03.222Z,6.63
2022-09-14T16:01:31.501Z,6.35
2022-09-14T16:03:59.518Z,5.45
2022-09-14T16:06:28.066Z,5.97
2022-09-14T16:08:56.107Z,4.32
2022-09-14T16:11:23.661Z,5.17
2022-09-14T16:13:52.226Z,7.35
2022-09-14T16:16:22.173Z,6.70
2022-09-14T16:18:50.718Z,8.15
2022-09-14T16:21:20.506Z,6.93
2022-09-14T16:23:50.881Z,7.70
2022-09-14T16:26:22.566Z,5.85
2022-09-14T16:28:51.675Z,7.60
2022-09-14T16:31:23.044Z,5.18
2022-09-14T16:33:52.547Z,5.43
2022-09-14T16:36:24.201Z,8.38
2022-09-14T16:38:51.791Z,8.07
2022-09-14T16:41:19.489Z,7.47
2022-09-14T16:43:47.010Z,8.32
2022-09-14T16:46:16.401Z,7.78
2022-09-14T16:48:47.131Z,6.13
2022-09-14T16:51:16.002Z,9.43
2022-09-14T16:53:45.524Z,7.27
2022-09-14T16:56:15.206Z,6.45
2022-09-14T16:58:43.619Z,6.72
2022-09-14T17:01:15.034Z,6.93
2022-09-14T17:03:43.473Z,10.00
2022-09-14T17:06:15.539Z,7.20
2022-09-14T17:08:44.381Z,8.00
2022-09-14T17:11:12.985Z,7.90
2022-09-14T17:13:42.728Z,7.53
2022-09-14T17:16:12.393Z,6.30
2022-09-14T17:18:41.906Z,10.90
2022-09-14T17:21:13.537Z,7.05
2022-09-14T17:23:41.795Z,6.90
2022-09-14T17:26:11.751Z,5.88
2022-09-14T17:28:40.256Z,6.47
2022-09-14T17:31:09.461Z,6.80
2022-09-14T17:33:37.150Z,6.65
2022-09-14T17:36:07.051Z,9.55
2022-09-14T17:38:37.651Z,7.47
2022-09-14T17:41:07.757Z,7.70
2022-09-14T17:43:36.512Z,7.28
2022-09-14T17:46:05.606Z,6.32
2022-09-14T17:48:35.055Z,5.65
2022-09-14T17:51:06.410Z,5.35
2022-09-14T17:53:39.392Z,5.22
2022-09-14T17:56:08.687Z,3.60
2022-09-14T17:58:37.536Z,5.18
2022-09-14T18:01:10.404Z,3.45
2022-09-14T18:03:39.379Z,4.57
2022-09-14T18:06:09.135Z,3.97
2022-09-14T18:08:38.484Z,4.70
2022-09-14T18:11:07.783Z,2.22
2022-09-14T18:13:35.376Z,3.80
2022-09-14T18:16:03.157Z,3.83
2022-09-14T18:18:30.970Z,2.05
2022-09-14T18:20:59.659Z,5.38
2022-09-14T18:23:27.863Z,3.15
2022-09-14T18:25:57.757Z,4.10
2022-09-14T18:28:25.667Z,4.47
2022-09-14T18:31:01.274Z,5.20
2022-09-14T18:33:29.244Z,3.55
2022-09-14T18:35:57.384Z,3.08
2022-09-14T18:38:25.969Z,3.22
2022-09-14T18:40:53.633Z,3.13
2022-09-14T18:43:22.609Z,3.58
2022-09-14T18:45:50.347Z,3.33
2022-09-14T18:48:17.994Z,3.65
2022-09-14T18:50:45.650Z,2.92
2022-09-14T18:53:13.800Z,8.65
2022-09-14T18:55:41.553Z,5.13
2022-09-14T18:58:09.469Z,3.92
2022-09-14T19:00:44.971Z,3.38
2022-09-14T19:03:13.584Z,2.75
2022-09-14T19:05:42.936Z,5.00
2022-09-14T19:08:13.480Z,2.97
2022-09-14T19:10:41.354Z,5.45
2022-09-14T19:13:09.047Z,4.00
2022-09-14T19:15:40.737Z,3.72
2022-09-14T19:18:09.447Z,5.38
2022-09-14T19:21:05.283Z,4.05
2022-09-14T19:23:28.891Z,3.70
2022-09-14T19:25:56.471Z,5.10
2022-09-14T19:28:24.014Z,5.80
2022-09-14T19:30:52.926Z,5.35
2022-09-14T19:33:20.550Z,4.72
2022-09-14T19:35:48.054Z,6.95
2022-09-14T19:38:15.621Z,5.45
2022-09-14T19:40:51.682Z,3.88
2022-09-14T19:43:19.458Z,6.03
2022-09-14T19:45:47.025Z,5.03
2022-09-14T19:48:16.266Z,3.55
2022-09-14T19:50:46.003Z,2.05
2022-09-14T19:53:13.830Z,3.88
2022-09-14T19:55:41.406Z,4.55
2022-09-14T19:58:09.063Z,7.65
2022-09-14T20:00:37.119Z,4.43
2022-09-14T20:03:04.926Z,4.95
2022-09-14T20:05:34.017Z,6.38
2022-09-14T20:08:01.687Z,4.15
2022-09-14T20:10:29.209Z,3.35
2022-09-14T20:12:56.763Z,7.65
2022-09-14T20:15:24.407Z,3.13
2022-09-14T20:17:55.266Z,4.22
2022-09-14T20:20:22.856Z,3.80
2022-09-14T20:22:51.935Z,2.85
2022-09-14T20:25:19.515Z,2.40
2022-09-14T20:27:47.780Z,6.60
2022-09-14T20:30:15.539Z,2.42
2022-09-14T20:32:43.089Z,3.17
2022-09-14T20:35:10.644Z,2.08
2022-09-14T20:37:38.221Z,2.42
2022-09-14T20:40:08.853Z,3.78
2022-09-14T20:42:36.562Z,3.17
2022-09-14T20:45:04.400Z,3.17
2022-09-14T20:47:31.962Z,2.35
2022-09-14T20:49:59.759Z,1.80
2022-09-14T20:52:27.310Z,0.00
2022-09-14T20:54:54.924Z,0.40
2022-09-14T20:57:24.189Z,4.07
2022-09-14T20:59:51.768Z,3.50
2022-09-14T21:02:19.567Z,2.97
2022-09-14T21:04:47.161Z,4.53
2022-09-14T21:07:14.738Z,4.18
2022-09-14T21:09:42.501Z,4.88
2022-09-14T21:12:14.101Z,3.63
2022-09-14T21:14:45.011Z,1.70
2022-09-14T21:17:12.939Z,3.13
2022-09-14T21:19:40.645Z,2.25
2022-09-14T21:22:08.422Z,1.70
2022-09-14T21:24:36.383Z,1.67
2022-09-14T21:27:04.864Z,2.85
2022-09-14T21:29:33.977Z,4.03
2022-09-14T21:32:08.235Z,3.25
2022-09-14T21:34:36.505Z,4.80
2022-09-14T21:37:04.053Z,6.00
2022-09-14T21:39:31.636Z,2.85
2022-09-14T21:42:00.559Z,2.58
2022-09-14T21:44:29.796Z,2.70
2022-09-14T21:46:57.437Z,5.45
2022-09-14T21:49:26.467Z,2.92
2022-09-14T21:51:54.238Z,2.58
2022-09-14T21:54:22.171Z,2.00
2022-09-14T21:56:49.905Z,1.65
2022-09-14T21:59:19.385Z,3.20
2022-09-14T22:01:47.914Z,3.47
2022-09-14T22:04:18.181Z,2.25
2022-09-14T22:06:47.334Z,2.58
2022-09-14T22:09:16.747Z,2.20
2022-09-14T22:11:44.982Z,5.88
2022-09-14T22:14:14.492Z,2.35
2022-09-14T22:16:42.738Z,2.65
2022-09-14T22:19:15.287Z,5.43
2022-09-14T22:21:43.178Z,2.47
2022-09-14T22:24:16.043Z,2.65
2022-09-14T22:26:44.388Z,2.72
2022-09-14T22:29:14.038Z,5.82
2022-09-14T22:31:43.902Z,2.67
2022-09-14T22:34:12.504Z,2.95
2022-09-14T22:36:41.092Z,3.88
2022-09-14T22:39:10.009Z,3.58
2022-09-14T22:41:39.433Z,2.38
2022-09-14T22:44:08.230Z,3.30
2022-09-14T22:46:36.893Z,5.97
2022-09-14T22:49:04.753Z,4.07
2022-09-14T22:51:32.524Z,4.07
2022-09-14T22:54:00.121Z,2.35
2022-09-14T22:56:29.709Z,2.63
2022-09-14T22:58:59.601Z,3.83
2022-09-14T23:01:30.954Z,2.50
2022-09-14T23:04:00.210Z,1.55
2022-09-14T23:06:29.100Z,3.78
2022-09-14T23:08:56.676Z,3.15
2022-09-14T23:11:24.231Z,1.25
2022-09-14T23:13:53.301Z,1.95
2022-09-14T23:16:26.262Z,2.20
2022-09-14T23:18:55.577Z,2.65
2022-09-14T23:21:23.335Z,3.95
2022-09-14T23:23:52.471Z,3.65
2022-09-14T23:26:20.653Z,1.13
2022-09-14T23:28:52.477Z,2.58
2022-09-14T23:31:20.075Z,2.28
2022-09-14T23:33:51.791Z,3.40
2022-09-14T23:36:22.014Z,2.95
2022-09-14T23:38:50.455Z,2.75
2022-09-14T23:41:19.174Z,3.08
2022-09-14T23:43:47.174Z,1.77
2022-09-14T23:46:15.647Z,3.05
2022-09-14T23:48:43.416Z,2.28
2022-09-14T23:51:13.586Z,3.38
2022-09-14T23:53:42.406Z,2.28
2022-09-14T23:56:09.969Z,3.60
2022-09-14T23:58:37.626Z,2.63
